Time;durP1;ratioP1;P1;durP2;ratioP2;P2;SDS_P1;SDS_P2;PMS_P1;PMS_P2;Temp;Humidity;BMP_temperature;BMP_pressure;BME280_temperature;BME280_humidity;BME280_pressure;Samples;Min_cycle;Max_cycle;Signal;HPM_P1;HPM_P2
2022/03/02 00:02:01;;;;;;;14.07;9.43;;;;;;;2.04;61.86;102023.81;5090978;28;20669;-71
2022/03/02 00:04:27;;;;;;;15.10;9.53;;;;;;;2.02;62.39;102020.31;5090187;28;20259;-71
2022/03/02 00:06:54;;;;;;;12.63;9.17;;;;;;;2.02;61.76;102017.69;5087278;28;20211;-71
2022/03/02 00:09:22;;;;;;;12.20;8.80;;;;;;;2.01;61.98;102020.31;5087667;28;20380;-71
2022/03/02 00:11:49;;;;;;;12.90;9.13;;;;;;;1.99;61.95;102009.81;5090762;28;20218;-72
2022/03/02 00:14:15;;;;;;;16.00;9.40;;;;;;;1.98;61.80;102015.94;5091411;28;20224;-71
2022/03/02 00:16:42;;;;;;;13.50;9.87;;;;;;;1.96;61.79;102014.25;5082016;28;20204;-71
2022/03/02 00:19:09;;;;;;;14.57;10.43;;;;;;;1.95;61.74;102008.13;5094629;28;20218;-71
2022/03/02 00:21:36;;;;;;;11.87;9.27;;;;;;;1.93;62.02;102006.38;5092832;28;20697;-71
2022/03/02 00:24:04;;;;;;;14.10;9.17;;;;;;;1.92;61.44;102009.88;5092719;28;20667;-72
2022/03/02 00:26:32;;;;;;;12.37;9.13;;;;;;;1.91;62.31;102009.00;5099949;28;20208;-71
2022/03/02 00:28:58;;;;;;;12.47;8.47;;;;;;;1.92;61.55;102012.50;5091434;28;20208;-71
2022/03/02 00:31:25;;;;;;;11.30;8.43;;;;;;;1.90;61.61;102009.88;5088176;28;20561;-74
2022/03/02 00:33:52;;;;;;;11.83;8.40;;;;;;;1.92;61.25;102015.13;5086439;28;20728;-72
2022/03/02 00:36:19;;;;;;;10.83;7.97;;;;;;;1.92;61.71;102009.88;5082155;28;20673;-72
2022/03/02 00:38:45;;;;;;;14.27;8.30;;;;;;;1.92;61.72;102010.75;5089854;28;20201;-72
2022/03/02 00:41:12;;;;;;;12.90;8.63;;;;;;;1.92;60.91;102005.50;5087230;28;20200;-72
2022/03/02 00:43:39;;;;;;;15.17;9.13;;;;;;;1.92;61.71;102002.88;5092351;28;20783;-72
2022/03/02 00:46:06;;;;;;;13.10;9.20;;;;;;;1.90;61.84;102007.25;5091710;28;20232;-70
2022/03/02 00:48:33;;;;;;;12.23;8.83;;;;;;;1.89;61.70;102008.13;5085786;28;20584;-74
2022/03/02 00:51:00;;;;;;;12.70;9.33;;;;;;;1.89;61.06;102016.03;5091236;28;20196;-74
2022/03/02 00:53:28;;;;;;;12.90;8.87;;;;;;;1.88;61.37;102014.28;5091046;28;20215;-74
2022/03/02 00:55:54;;;;;;;14.53;9.70;;;;;;;1.87;61.75;102004.66;5090188;28;20200;-74
2022/03/02 00:58:21;;;;;;;13.57;9.80;;;;;;;1.85;61.62;102008.16;5083290;28;20208;-74
2022/03/02 01:00:48;;;;;;;13.50;9.63;;;;;;;1.83;61.80;102005.53;5082158;28;20231;-74
2022/03/02 01:03:15;;;;;;;11.03;8.97;;;;;;;1.83;62.19;102004.66;5080348;28;20212;-73
2022/03/02 01:05:42;;;;;;;14.73;10.20;;;;;;;1.81;61.86;102002.03;5082643;28;20239;-74
2022/03/02 01:08:08;;;;;;;13.27;9.07;;;;;;;1.79;62.40;102002.97;5083309;28;20306;-74
2022/03/02 01:10:35;;;;;;;14.63;8.53;;;;;;;1.79;62.37;101997.72;5084258;28;20203;-74
2022/03/02 01:13:02;;;;;;;10.87;8.17;;;;;;;1.78;62.47;101995.97;5093747;28;20586;-74
2022/03/02 01:15:28;;;;;;;12.50;9.03;;;;;;;1.75;61.95;101988.97;5101107;28;20225;-74
2022/03/02 01:17:56;;;;;;;11.13;9.17;;;;;;;1.74;62.86;101988.09;5086276;28;20208;-74
2022/03/02 01:20:23;;;;;;;12.90;9.13;;;;;;;1.71;62.86;101985.47;5081145;28;20279;-74
2022/03/02 01:22:50;;;;;;;10.90;8.07;;;;;;;1.70;62.64;101990.75;5086187;28;20216;-74
2022/03/02 01:25:16;;;;;;;14.87;9.13;;;;;;;1.68;63.20;101982.00;5082454;28;20595;-74
2022/03/02 01:27:43;;;;;;;12.43;9.50;;;;;;;1.65;63.13;101975.00;5081532;28;20204;-74
2022/03/02 01:30:10;;;;;;;11.67;7.97;;;;;;;1.66;63.69;101981.13;5089476;28;20208;-74
2022/03/02 01:32:37;;;;;;;12.37;8.90;;;;;;;1.64;63.21;101972.38;5086450;28;20192;-74
2022/03/02 01:35:05;;;;;;;11.07;8.43;;;;;;;1.62;63.40;101968.88;5084751;28;20217;-74
2022/03/02 01:37:32;;;;;;;11.50;8.17;;;;;;;1.59;63.37;101968.94;5096704;28;20293;-74
2022/03/02 01:39:59;;;;;;;11.97;8.30;;;;;;;1.55;64.38;101968.06;5091368;28;20701;-74
2022/03/02 01:42:25;;;;;;;11.57;8.80;;;;;;;1.55;64.25;101961.94;5088582;28;20208;-74
2022/03/02 01:44:52;;;;;;;11.53;8.23;;;;;;;1.52;64.22;101959.31;5087058;28;20232;-74
2022/03/02 01:47:18;;;;;;;11.87;8.20;;;;;;;1.48;64.34;101958.47;5085838;28;20204;-74
2022/03/02 01:49:45;;;;;;;11.20;8.80;;;;;;;1.45;64.82;101961.09;5089927;28;20204;-74
2022/03/02 01:52:13;;;;;;;11.70;8.57;;;;;;;1.43;65.23;101962.88;5084160;28;20200;-74
2022/03/02 01:54:40;;;;;;;11.63;8.40;;;;;;;1.42;65.32;101960.28;5085397;28;20618;-74
2022/03/02 01:57:06;;;;;;;10.47;8.43;;;;;;;1.42;65.63;101957.66;5086243;28;20222;-74
2022/03/02 01:59:33;;;;;;;11.73;8.53;;;;;;;1.42;66.20;101952.41;5090014;28;20579;-74
2022/03/02 02:02:00;;;;;;;10.20;8.20;;;;;;;1.42;66.48;101939.28;5083821;28;20209;-74
2022/03/02 02:04:26;;;;;;;12.47;9.10;;;;;;;1.41;66.60;101938.41;5096320;28;20235;-74
2022/03/02 02:06:53;;;;;;;12.40;8.57;;;;;;;1.41;66.56;101942.78;5085125;28;20579;-74
2022/03/02 02:09:21;;;;;;;12.63;8.80;;;;;;;1.39;66.56;101941.03;5085593;28;20710;-74
2022/03/02 02:11:47;;;;;;;11.93;8.93;;;;;;;1.41;67.12;101937.53;5087726;28;20207;-73
2022/03/02 02:14:14;;;;;;;11.17;8.47;;;;;;;1.40;67.13;101939.28;5081539;28;20227;-74
2022/03/02 02:16:40;;;;;;;10.40;8.40;;;;;;;1.38;66.84;101933.16;5089561;28;20200;-74
2022/03/02 02:19:07;;;;;;;12.00;8.77;;;;;;;1.34;66.76;101932.28;5088608;28;20204;-74
2022/03/02 02:21:35;;;;;;;11.90;8.70;;;;;;;1.30;66.70;101933.19;5086955;28;20635;-74
2022/03/02 02:24:02;;;;;;;12.00;8.53;;;;;;;1.25;66.96;101940.22;5086365;28;20594;-74
2022/03/02 02:26:28;;;;;;;10.63;8.63;;;;;;;1.23;66.87;101936.72;5079088;28;20282;-74
2022/03/02 02:28:55;;;;;;;11.70;9.10;;;;;;;1.22;66.97;101934.97;5098578;28;20200;-74
2022/03/02 02:31:22;;;;;;;14.53;9.23;;;;;;;1.22;67.57;101921.00;5096910;28;20215;-74
2022/03/02 02:33:49;;;;;;;14.47;9.30;;;;;;;1.22;67.34;101921.00;5088133;28;20235;-74
2022/03/02 02:36:16;;;;;;;14.27;9.13;;;;;;;1.23;67.60;101912.25;5076579;28;20209;-74
2022/03/02 02:38:44;;;;;;;13.17;8.70;;;;;;;1.23;67.63;101907.00;5089644;28;20215;-74
2022/03/02 02:41:10;;;;;;;15.07;9.13;;;;;;;1.24;67.32;101907.00;5075546;28;20200;-74
2022/03/02 02:43:42;;;;;;;13.77;9.10;;;;;;;1.22;67.23;101900.88;5088443;28;20208;-74
2022/03/02 02:46:09;;;;;;;12.17;8.60;;;;;;;1.20;67.48;101900.00;5089975;28;20704;-73
2022/03/02 02:48:37;;;;;;;13.83;9.17;;;;;;;1.17;67.54;101899.13;5084795;28;20200;-73
2022/03/02 02:51:04;;;;;;;12.63;9.67;;;;;;;1.15;67.14;101893.91;5081933;28;20633;-74
2022/03/02 02:53:30;;;;;;;12.07;8.50;;;;;;;1.13;67.18;101897.41;5088699;28;20196;-74
2022/03/02 02:55:58;;;;;;;9.43;7.67;;;;;;;1.11;66.86;101899.16;5090521;28;20368;-73
2022/03/02 02:58:25;;;;;;;11.73;8.43;;;;;;;1.08;66.94;101892.16;5088930;28;20208;-74
2022/03/02 03:00:51;;;;;;;11.33;8.23;;;;;;;1.06;66.90;101893.97;5086206;28;20215;-74
2022/03/02 03:03:19;;;;;;;11.90;8.50;;;;;;;1.05;66.58;101889.59;5083348;28;20212;-74
2022/03/02 03:05:46;;;;;;;12.90;9.07;;;;;;;1.02;66.55;101882.59;5087607;28;20234;-74
2022/03/02 03:08:14;;;;;;;12.00;9.27;;;;;;;1.01;66.57;101885.22;5088710;28;20208;-74
2022/03/02 03:10:42;;;;;;;11.00;7.93;;;;;;;0.99;66.82;101884.34;5090379;28;20204;-73
2022/03/02 03:13:10;;;;;;;10.30;8.23;;;;;;;0.98;66.78;101877.38;5080353;28;20208;-74
2022/03/02 03:15:38;;;;;;;12.37;8.87;;;;;;;0.98;66.80;101873.00;5088633;28;20228;-74
2022/03/02 03:18:06;;;;;;;11.97;9.07;;;;;;;1.01;67.38;101877.34;5088312;28;20204;-74
2022/03/02 03:20:34;;;;;;;13.50;8.83;;;;;;;1.02;67.21;101879.97;5088419;28;20212;-74
2022/03/02 03:23:01;;;;;;;12.10;8.97;;;;;;;1.07;67.29;101884.34;5080898;28;20207;-74
2022/03/02 03:25:29;;;;;;;10.70;8.67;;;;;;;1.07;67.48;101884.34;5082683;28;20224;-74
2022/03/02 03:27:56;;;;;;;13.57;8.90;;;;;;;1.08;67.08;101883.44;5087315;28;20204;-74
2022/03/02 03:30:25;;;;;;;11.07;8.17;;;;;;;1.08;67.14;101886.91;5088547;28;20231;-74
2022/03/02 03:32:53;;;;;;;11.60;8.83;;;;;;;1.07;67.43;101889.59;5089199;28;20212;-74
2022/03/02 03:35:24;;;;;;;13.33;8.97;;;;;;;1.07;67.77;101885.22;5089480;28;20236;-74
2022/03/02 03:37:50;;;;;;;10.73;8.50;;;;;;;1.09;67.88;101880.78;5087181;28;20287;-74
2022/03/02 03:40:19;;;;;;;14.00;9.37;;;;;;;1.10;68.12;101881.66;5088294;28;20220;-74
2022/03/02 03:42:46;;;;;;;14.47;9.97;;;;;;;1.11;68.50;101886.91;5083417;28;20276;-73
2022/03/02 03:45:13;;;;;;;12.83;9.87;;;;;;;1.12;68.69;101886.03;5088097;28;20232;-74
2022/03/02 03:47:42;;;;;;;12.77;9.73;;;;;;;1.13;68.51;101881.66;5085244;28;20579;-73
2022/03/02 03:50:10;;;;;;;13.67;9.17;;;;;;;1.14;68.65;101884.28;5087985;28;20208;-74
2022/03/02 03:52:37;;;;;;;12.57;9.50;;;;;;;1.14;68.56;101881.66;5080487;28;20200;-74
2022/03/02 03:55:05;;;;;;;18.07;10.10;;;;;;;1.17;68.99;101881.66;5088374;28;20335;-74
2022/03/02 03:57:31;;;;;;;12.53;9.63;;;;;;;1.17;68.88;101876.41;5086313;28;20212;-74
2022/03/02 03:59:58;;;;;;;13.57;9.80;;;;;;;1.18;69.53;101879.91;5082331;28;20200;-74
2022/03/02 04:02:24;;;;;;;13.23;10.17;;;;;;;1.19;69.13;101872.00;5087640;28;20204;-74
2022/03/02 04:04:52;;;;;;;13.90;9.73;;;;;;;1.19;69.41;101872.00;5085383;28;20798;-73
2022/03/02 04:07:19;;;;;;;15.07;10.40;;;;;;;1.20;69.80;101871.13;5081844;28;20204;-74
2022/03/02 04:09:45;;;;;;;12.97;9.23;;;;;;;1.21;69.70;101867.63;5089542;28;20222;-74
2022/03/02 04:12:12;;;;;;;14.67;9.67;;;;;;;1.22;69.70;101876.38;5082318;28;20211;-74
2022/03/02 04:14:38;;;;;;;13.73;9.57;;;;;;;1.22;69.84;101884.25;5092064;28;20232;-74
2022/03/02 04:17:05;;;;;;;15.57;10.17;;;;;;;1.22;69.71;101879.88;5078716;28;20215;-74
2022/03/02 04:19:32;;;;;;;12.43;9.33;;;;;;;1.23;69.77;101881.63;5082002;28;20292;-74
2022/03/02 04:21:59;;;;;;;14.23;9.83;;;;;;;1.24;69.84;101880.75;5088264;28;20201;-74
2022/03/02 04:24:26;;;;;;;16.50;10.87;;;;;;;1.23;70.03;101881.63;5090865;28;20223;-75
2022/03/02 04:26:53;;;;;;;14.23;9.70;;;;;;;1.23;70.07;101876.38;5088470;28;20227;-74
2022/03/02 04:29:19;;;;;;;12.67;9.67;;;;;;;1.24;69.96;101874.63;5088815;28;20219;-72
2022/03/02 04:31:46;;;;;;;12.07;9.47;;;;;;;1.22;69.94;101877.25;5084712;28;20204;-72
2022/03/02 04:34:12;;;;;;;12.57;8.93;;;;;;;1.21;69.86;101866.75;5081817;28;20220;-73
2022/03/02 04:36:39;;;;;;;10.63;8.93;;;;;;;1.20;70.17;101865.88;5086708;28;20204;-72
2022/03/02 04:39:07;;;;;;;13.93;9.17;;;;;;;1.20;69.98;101870.25;5082479;28;20604;-74
2022/03/02 04:41:33;;;;;;;13.17;9.97;;;;;;;1.20;69.73;101873.75;5087679;28;20196;-74
2022/03/02 04:44:00;;;;;;;17.50;9.90;;;;;;;1.20;70.23;101873.75;5078908;28;20235;-74
2022/03/02 04:46:26;;;;;;;11.57;8.03;;;;;;;1.18;69.87;101872.91;5078710;28;20228;-73
2022/03/02 04:48:53;;;;;;;14.07;9.40;;;;;;;1.16;69.83;101864.16;5079188;28;20205;-74
2022/03/02 04:51:19;;;;;;;17.33;9.53;;;;;;;1.16;70.13;101866.78;5085769;28;20204;-74
2022/03/02 04:53:46;;;;;;;11.57;9.23;;;;;;;1.13;69.91;101861.53;5086240;28;20238;-73
2022/03/02 04:56:14;;;;;;;13.33;9.70;;;;;;;1.12;69.67;101864.16;5077766;28;20207;-74
2022/03/02 04:58:40;;;;;;;11.57;8.13;;;;;;;1.07;70.04;101848.47;5075356;28;20675;-72
2022/03/02 05:01:07;;;;;;;15.43;8.83;;;;;;;1.06;70.42;101846.72;5080050;28;20204;-73
2022/03/02 05:03:33;;;;;;;10.87;8.57;;;;;;;1.02;70.52;101845.88;5090288;28;20200;-73
2022/03/02 05:06:00;;;;;;;14.00;9.43;;;;;;;1.00;70.44;101860.75;5083024;28;20220;-73
2022/03/02 05:08:26;;;;;;;13.73;9.07;;;;;;;0.97;70.73;101860.75;5082722;28;20227;-73
2022/03/02 05:10:53;;;;;;;16.27;9.97;;;;;;;0.94;70.64;101852.03;5087091;28;20574;-73
2022/03/02 05:13:21;;;;;;;14.43;9.73;;;;;;;0.93;71.03;101850.28;5083596;28;20208;-73
2022/03/02 05:15:47;;;;;;;13.50;9.83;;;;;;;0.91;71.11;101858.16;5083917;28;20220;-73
2022/03/02 05:18:14;;;;;;;15.20;9.40;;;;;;;0.89;71.04;101853.81;5092860;28;20211;-73
2022/03/02 05:20:40;;;;;;;13.90;9.50;;;;;;;0.88;71.40;101844.19;5080649;28;20701;-73
2022/03/02 05:23:07;;;;;;;13.17;9.57;;;;;;;0.86;71.44;101845.94;5076919;28;21539;-73
2022/03/02 05:25:34;;;;;;;14.20;10.30;;;;;;;0.84;71.38;101847.72;5078610;28;20232;-73
2022/03/02 05:28:00;;;;;;;12.80;9.03;;;;;;;0.83;71.57;101853.84;5081210;28;20205;-73
2022/03/02 05:30:28;;;;;;;14.30;10.10;;;;;;;0.82;71.89;101855.59;5076267;28;20211;-73
2022/03/02 05:32:54;;;;;;;15.53;10.20;;;;;;;0.82;72.07;101862.56;5079873;28;20207;-73
2022/03/02 05:35:21;;;;;;;15.83;11.73;;;;;;;0.80;71.60;101852.09;5075369;28;20217;-73
2022/03/02 05:37:48;;;;;;;17.10;10.77;;;;;;;0.80;71.63;101851.22;5078942;28;20204;-73
2022/03/02 05:40:16;;;;;;;17.93;10.17;;;;;;;0.78;71.84;101856.47;5079052;28;20592;-73
2022/03/02 05:42:43;;;;;;;15.23;10.57;;;;;;;0.77;72.04;101848.59;5079420;28;20196;-73
2022/03/02 05:45:10;;;;;;;12.97;9.57;;;;;;;0.76;72.28;101841.59;5081727;28;20712;-73
2022/03/02 05:47:38;;;;;;;13.50;10.20;;;;;;;0.73;72.21;101846.84;5083304;28;20229;-73
2022/03/02 05:50:06;;;;;;;14.73;9.53;;;;;;;0.72;72.10;101845.16;5085931;28;20204;-73
2022/03/02 05:52:33;;;;;;;13.57;9.30;;;;;;;0.67;72.05;101853.91;5088979;28;20200;-73
2022/03/02 05:54:59;;;;;;;13.77;8.73;;;;;;;0.62;71.82;101847.78;5081522;28;20225;-72
2022/03/02 05:57:26;;;;;;;12.47;8.37;;;;;;;0.56;72.21;101853.03;5085633;28;20208;-73
2022/03/02 05:59:53;;;;;;;12.10;8.63;;;;;;;0.50;72.01;101855.69;5082498;28;20204;-73
2022/03/02 06:02:20;;;;;;;13.80;9.20;;;;;;;0.44;72.24;101858.31;5083253;28;20264;-73
2022/03/02 06:04:48;;;;;;;14.27;8.97;;;;;;;0.41;71.82;101850.47;5083424;28;20224;-73
2022/03/02 06:07:15;;;;;;;13.23;8.50;;;;;;;0.38;72.26;101853.09;5078563;28;20717;-73
2022/03/02 06:09:43;;;;;;;12.33;9.17;;;;;;;0.36;72.06;101856.63;5085407;28;20212;-73
2022/03/02 06:12:10;;;;;;;14.17;8.50;;;;;;;0.34;72.06;101854.00;5080894;28;20199;-73
2022/03/02 06:14:37;;;;;;;12.63;8.83;;;;;;;0.33;72.19;101862.72;5077221;28;20224;-73
2022/03/02 06:17:05;;;;;;;13.17;8.90;;;;;;;0.33;72.21;101860.13;5079117;28;20571;-73
2022/03/02 06:19:32;;;;;;;11.97;9.37;;;;;;;0.32;72.25;101860.97;5076412;28;20217;-71
2022/03/02 06:22:02;;;;;;;14.33;9.70;;;;;;;0.33;72.35;101854.88;5084158;28;20661;-73
2022/03/02 06:24:30;;;;;;;12.17;9.33;;;;;;;0.34;72.50;101854.00;5080300;28;20339;-73
2022/03/02 06:26:56;;;;;;;12.17;9.07;;;;;;;0.34;72.54;101856.63;5077335;28;20835;-73
2022/03/02 06:29:23;;;;;;;14.20;9.27;;;;;;;0.36;71.96;101856.63;5075979;28;20201;-73
2022/03/02 06:31:50;;;;;;;14.57;8.23;;;;;;;0.37;72.23;101861.81;5082925;28;20205;-72
2022/03/02 06:34:16;;;;;;;14.80;9.23;;;;;;;0.37;72.17;101861.81;5084133;28;20220;-73
2022/03/02 06:36:43;;;;;;;11.73;8.83;;;;;;;0.39;72.14;101867.06;5076625;28;20227;-72
2022/03/02 06:39:11;;;;;;;13.47;9.07;;;;;;;0.38;72.14;101862.69;5083370;28;20213;-72
2022/03/02 06:41:47;;;;;;;18.77;9.70;;;;;;;0.37;72.10;101861.81;5077097;28;20695;-73
2022/03/02 06:44:24;;;;;;;12.20;8.17;;;;;;;0.38;72.39;101865.31;5078615;28;20228;-73
2022/03/02 06:46:58;;;;;;;13.57;8.67;;;;;;;0.37;72.44;101868.81;5089835;28;20227;-73
2022/03/02 06:49:30;;;;;;;13.60;9.00;;;;;;;0.36;72.42;101867.94;5089980;28;20254;-73
2022/03/02 06:51:59;;;;;;;12.70;9.10;;;;;;;0.38;72.47;101866.19;5086940;28;20196;-73
2022/03/02 06:54:30;;;;;;;14.90;9.17;;;;;;;0.37;72.45;101864.44;5095439;28;20228;-73
2022/03/02 06:56:58;;;;;;;13.00;9.10;;;;;;;0.37;72.67;101858.34;5094826;28;20200;-73
2022/03/02 06:59:30;;;;;;;14.50;9.43;;;;;;;0.40;72.74;101856.59;5087160;28;20212;-73
2022/03/02 07:02:01;;;;;;;13.13;9.37;;;;;;;0.43;72.63;101871.44;5081900;28;20247;-73
2022/03/02 07:04:28;;;;;;;11.13;8.63;;;;;;;0.43;72.71;101866.19;5081817;28;20220;-73
2022/03/02 07:06:55;;;;;;;14.67;9.60;;;;;;;0.46;72.80;101868.81;5086743;28;20224;-73
2022/03/02 07:09:24;;;;;;;13.90;9.63;;;;;;;0.47;72.68;101852.22;5081102;28;20673;-73
2022/03/02 07:11:53;;;;;;;14.90;8.57;;;;;;;0.50;72.52;101855.69;5082573;28;20647;-73
2022/03/02 07:14:21;;;;;;;14.03;9.27;;;;;;;0.53;72.71;101860.94;5084209;28;20221;-73
2022/03/02 07:16:48;;;;;;;13.70;9.53;;;;;;;0.56;72.76;101860.03;5079199;28;20197;-73
2022/03/02 07:19:15;;;;;;;13.10;8.63;;;;;;;0.58;72.55;101860.91;5089641;28;20290;-73
2022/03/02 07:21:46;;;;;;;14.80;9.63;;;;;;;0.60;72.47;101860.03;5083321;28;20200;-73
2022/03/02 07:24:16;;;;;;;15.07;9.40;;;;;;;0.64;72.47;101856.53;5082318;28;20618;-73
2022/03/02 07:26:45;;;;;;;13.67;9.47;;;;;;;0.69;72.87;101862.63;5087493;28;20240;-73
2022/03/02 07:29:14;;;;;;;15.30;9.40;;;;;;;0.75;72.32;101873.94;5085608;28;20570;-71
2022/03/02 07:31:42;;;;;;;13.10;9.03;;;;;;;0.79;72.22;101873.94;5084112;28;20211;-70
2022/03/02 07:34:12;;;;;;;13.37;9.60;;;;;;;0.85;72.21;101880.91;5087671;28;20315;-71
2022/03/02 07:36:40;;;;;;;13.70;9.53;;;;;;;0.87;71.84;101876.53;5083952;28;20212;-71
2022/03/02 07:39:07;;;;;;;14.07;9.50;;;;;;;0.90;72.12;101873.88;5083661;28;20569;-71
2022/03/02 07:41:34;;;;;;;12.00;8.83;;;;;;;0.94;72.17;101878.25;5085983;28;20204;-74
2022/03/02 07:44:00;;;;;;;12.13;9.17;;;;;;;1.00;71.85;101867.75;5087296;28;20228;-70
2022/03/02 07:46:29;;;;;;;15.43;9.33;;;;;;;1.05;72.05;101876.47;5085809;28;20228;-71
2022/03/02 07:48:56;;;;;;;13.70;9.47;;;;;;;1.12;71.87;101869.41;5089561;28;20253;-74
2022/03/02 07:51:23;;;;;;;14.20;9.60;;;;;;;1.18;71.78;101874.66;5087770;28;20196;-71
2022/03/02 07:53:52;;;;;;;12.67;9.23;;;;;;;1.25;72.40;101868.50;5088393;28;20227;-74
2022/03/02 07:56:20;;;;;;;14.43;10.13;;;;;;;1.34;72.22;101871.94;5091619;28;20199;-72
2022/03/02 07:58:47;;;;;;;13.60;9.10;;;;;;;1.41;72.02;101872.78;5087187;28;20216;-71
2022/03/02 08:01:18;;;;;;;14.07;8.97;;;;;;;1.50;71.51;101874.44;5087138;28;20199;-72
2022/03/02 08:03:46;;;;;;;14.50;10.00;;;;;;;1.57;71.19;101870.91;5086224;28;20217;-71
2022/03/02 08:06:13;;;;;;;44.60;13.20;;;;;;;1.65;71.46;101863.84;5085469;28;20213;-72
2022/03/02 08:08:40;;;;;;;26.87;11.97;;;;;;;1.73;70.97;101859.41;5090218;28;20231;-71
2022/03/02 08:11:06;;;;;;;13.70;9.23;;;;;;;1.80;71.20;101868.97;5092955;28;20204;-72
2022/03/02 08:13:36;;;;;;;12.67;9.37;;;;;;;1.85;71.02;101869.81;5085455;28;20561;-71
2022/03/02 08:16:04;;;;;;;15.00;8.97;;;;;;;1.92;70.75;101858.38;5090133;28;20204;-71
2022/03/02 08:18:30;;;;;;;13.80;9.70;;;;;;;2.00;70.58;101856.53;5086312;28;20204;-72
2022/03/02 08:21:00;;;;;;;13.27;8.93;;;;;;;2.08;69.96;101849.47;5087441;28;20201;-71
2022/03/02 08:23:30;;;;;;;15.27;9.60;;;;;;;2.16;70.26;101841.50;5090329;28;20223;-71
2022/03/02 08:25:57;;;;;;;13.27;9.77;;;;;;;2.24;70.21;101841.44;5085506;28;20197;-71
2022/03/02 08:28:24;;;;;;;17.53;10.70;;;;;;;2.31;69.88;101841.38;5084564;28;20220;-71
2022/03/02 08:30:52;;;;;;;13.80;10.10;;;;;;;2.39;69.78;101839.50;5091912;28;20204;-72
2022/03/02 08:33:25;;;;;;;16.83;10.60;;;;;;;2.47;69.13;101838.56;5091996;28;20227;-72
2022/03/02 08:35:52;;;;;;;16.27;10.27;;;;;;;2.52;69.38;101829.72;5100562;28;20208;-72
2022/03/02 08:38:19;;;;;;;16.40;10.30;;;;;;;2.59;68.49;101841.91;5077442;28;20262;-73
2022/03/02 08:40:46;;;;;;;18.40;10.87;;;;;;;2.67;68.31;101836.59;5093014;28;20208;-72
2022/03/02 08:43:15;;;;;;;15.17;9.47;;;;;;;2.73;68.90;101834.72;5092441;28;20208;-73
2022/03/02 08:45:43;;;;;;;13.83;10.70;;;;;;;2.78;68.96;101834.69;5075235;28;20249;-72
2022/03/02 08:48:11;;;;;;;17.27;11.17;;;;;;;2.83;68.12;101838.13;5084356;28;20236;-72
2022/03/02 08:50:38;;;;;;;15.63;11.33;;;;;;;2.88;68.15;101828.41;5091092;28;20208;-73
2022/03/02 08:53:05;;;;;;;13.67;10.80;;;;;;;2.93;68.30;101828.34;5083079;28;20208;-72
2022/03/02 08:55:34;;;;;;;14.57;9.93;;;;;;;2.97;68.44;101824.78;5091887;28;20238;-72
2022/03/02 08:58:01;;;;;;;15.67;9.87;;;;;;;3.02;68.13;101822.97;5091622;28;20205;-72
2022/03/02 09:00:28;;;;;;;14.73;9.70;;;;;;;3.07;68.56;101826.41;5088667;28;20590;-72
2022/03/02 09:02:56;;;;;;;16.53;10.80;;;;;;;3.12;68.29;101824.59;5088273;28;20211;-72
2022/03/02 09:05:27;;;;;;;15.73;10.37;;;;;;;3.17;68.36;101817.50;5090831;28;20220;-73
2022/03/02 09:07:54;;;;;;;15.43;11.20;;;;;;;3.23;67.85;101820.03;5090921;28;20240;-72
2022/03/02 09:10:20;;;;;;;16.17;11.00;;;;;;;3.29;68.31;101826.97;5092012;28;20223;-72
2022/03/02 09:12:49;;;;;;;16.20;10.93;;;;;;;3.35;67.59;101819.88;5091903;28;20586;-73
2022/03/02 09:15:15;;;;;;;11.57;9.30;;;;;;;3.42;67.25;101825.88;5092229;28;20232;-73
2022/03/02 09:17:42;;;;;;;13.40;10.17;;;;;;;3.48;67.46;101816.13;5091542;28;20215;-72
2022/03/02 09:20:10;;;;;;;13.90;9.77;;;;;;;3.56;67.05;101821.31;5091370;28;20208;-73
2022/03/02 09:22:38;;;;;;;14.13;9.67;;;;;;;3.64;67.29;101826.44;5091731;28;20219;-73
2022/03/02 09:25:06;;;;;;;16.20;10.50;;;;;;;3.70;66.62;101821.94;5092110;28;20231;-73
2022/03/02 09:27:34;;;;;;;13.57;10.73;;;;;;;3.77;66.43;101825.31;5076277;28;20235;-73
2022/03/02 09:30:06;;;;;;;15.20;10.70;;;;;;;3.82;65.86;101826.13;5092181;28;20388;-73
2022/03/02 09:32:34;;;;;;;19.60;10.53;;;;;;;3.91;65.29;101815.44;5073680;28;20234;-72
2022/03/02 09:35:01;;;;;;;15.27;10.53;;;;;;;4.03;64.62;101823.13;5090424;28;20236;-73
2022/03/02 09:37:33;;;;;;;15.53;10.03;;;;;;;4.15;64.15;101825.53;5091710;28;20211;-72
2022/03/02 09:40:00;;;;;;;19.07;9.80;;;;;;;4.25;63.92;101825.38;5091123;28;20215;-73
2022/03/02 09:42:30;;;;;;;17.70;10.60;;;;;;;4.34;62.90;101825.19;5091502;28;20676;-73
2022/03/02 09:45:01;;;;;;;19.63;10.53;;;;;;;4.43;62.48;101831.19;5090915;28;20599;-73
2022/03/02 09:47:43;;;;;;;22.83;10.80;;;;;;;4.53;61.88;101821.31;5089166;28;20236;-73
2022/03/02 09:50:12;;;;;;;17.33;10.47;;;;;;;4.68;62.02;101826.28;5091705;28;20208;-73
2022/03/02 09:52:41;;;;;;;14.30;9.20;;;;;;;4.83;61.90;101833.91;5090443;28;20597;-73
2022/03/02 09:55:12;;;;;;;16.57;9.03;;;;;;;4.97;60.93;101830.09;5091671;28;20228;-73
2022/03/02 09:57:43;;;;;;;15.40;8.83;;;;;;;5.07;60.07;101826.34;5087310;28;20215;-72
2022/03/02 10:00:11;;;;;;;14.23;8.57;;;;;;;5.15;59.03;101822.63;5080431;28;20204;-76
2022/03/02 10:02:41;;;;;;;23.17;10.53;;;;;;;5.25;57.97;101823.28;5090318;28;20257;-73
2022/03/02 10:05:11;;;;;;;16.17;9.87;;;;;;;5.35;57.53;101822.19;5084337;28;20236;-73
2022/03/02 10:07:40;;;;;;;17.33;11.07;;;;;;;5.48;57.28;101820.13;5084090;28;20231;-72
2022/03/02 10:10:10;;;;;;;19.10;11.47;;;;;;;5.62;57.62;101818.00;5090391;28;20314;-73
2022/03/02 10:12:38;;;;;;;20.23;11.90;;;;;;;5.77;57.83;101820.28;5090938;28;20742;-74
2022/03/02 10:15:10;;;;;;;16.00;11.03;;;;;;;5.89;57.36;101816.50;5089833;28;20228;-73
2022/03/02 10:17:41;;;;;;;17.23;10.60;;;;;;;6.01;56.82;101825.88;5090675;28;20210;-73
2022/03/02 10:20:09;;;;;;;19.90;10.77;;;;;;;6.09;56.79;101818.63;5090531;28;20586;-73
2022/03/02 10:23:18;;;;;;;17.00;9.97;;;;;;;6.16;56.42;101821.06;5090762;28;20218;-73
2022/03/02 10:26:13;;;;;;;13.63;9.90;;;;;;;6.24;55.47;101813.81;5089554;28;20697;-73
2022/03/02 10:28:56;;;;;;;16.03;9.80;;;;;;;6.32;54.56;101805.66;5080265;28;20238;-73
2022/03/02 10:31:41;;;;;;;11.73;9.93;;;;;;;6.40;54.37;101808.97;5090069;28;20298;-73
2022/03/02 10:34:34;;;;;;;13.13;9.10;;;;;;;6.49;53.93;101807.81;5090836;28;20306;-73
2022/03/02 10:37:05;;;;;;;13.83;9.10;;;;;;;6.57;53.35;101804.06;5082747;28;20249;-73
2022/03/02 10:39:48;;;;;;;13.40;9.87;;;;;;;6.64;52.74;101807.38;5081479;28;20208;-73
2022/03/02 10:42:20;;;;;;;13.80;9.80;;;;;;;6.67;51.97;101809.06;5089399;28;20200;-73
2022/03/02 10:45:05;;;;;;;14.03;9.93;;;;;;;6.67;50.52;101811.72;5079108;28;20740;-74
2022/03/02 10:47:33;;;;;;;10.53;8.20;;;;;;;6.70;50.26;101812.50;5078126;28;20301;-73
2022/03/02 10:50:04;;;;;;;14.07;9.03;;;;;;;6.74;49.87;101800.94;5083782;28;20208;-72
2022/03/02 10:52:36;;;;;;;15.67;8.37;;;;;;;6.81;50.00;101807.75;5082381;28;20230;-73
2022/03/02 10:55:08;;;;;;;13.73;8.80;;;;;;;6.90;49.25;101807.50;5082758;28;20229;-73
2022/03/02 10:57:36;;;;;;;12.60;8.97;;;;;;;6.92;48.98;101797.75;5082285;28;20294;-73
2022/03/02 11:00:09;;;;;;;12.47;8.87;;;;;;;6.94;49.03;101801.22;5075835;28;20201;-73
2022/03/02 11:02:40;;;;;;;13.77;9.53;;;;;;;7.02;48.21;101800.09;5101094;28;20212;-72
2022/03/02 11:05:10;;;;;;;12.83;9.40;;;;;;;7.08;48.32;101791.97;5090146;28;20227;-74
2022/03/02 11:07:37;;;;;;;13.70;9.87;;;;;;;7.14;48.05;101794.44;5089313;28;20227;-73
2022/03/02 11:10:06;;;;;;;11.50;8.57;;;;;;;7.20;47.56;101794.22;5088744;28;20204;-73
2022/03/02 11:12:33;;;;;;;13.43;9.57;;;;;;;7.26;47.39;101792.25;5087049;28;20681;-72
2022/03/02 11:15:02;;;;;;;14.80;9.33;;;;;;;7.29;47.59;101788.66;5086677;28;20240;-73
2022/03/02 11:17:29;;;;;;;12.30;8.70;;;;;;;7.34;47.28;101796.47;5087444;28;20204;-72
2022/03/02 11:19:57;;;;;;;14.07;8.77;;;;;;;7.37;45.38;101789.25;5089848;28;20231;-74
2022/03/02 11:22:27;;;;;;;14.83;8.90;;;;;;;7.40;45.33;101778.56;5086767;28;20227;-73
2022/03/02 11:24:56;;;;;;;13.73;9.63;;;;;;;7.44;45.49;101777.56;5080487;28;20220;-73
2022/03/02 11:27:28;;;;;;;14.47;9.40;;;;;;;7.49;44.88;101772.13;5078846;28;20260;-74
2022/03/02 11:30:06;;;;;;;13.97;8.87;;;;;;;7.49;44.18;101778.28;5097037;28;20748;-74